QFA848 HKJK-FACT
Flight info
| Callsign | QFA848 |
|---|---|
| Flight time | 5h 9m |
| Altitude | 34000 |
| Route | ATUDU1D LOSIN UP312 MB/N0457F360 UR779 VLS UT916 IMKIV UQ23 DUMDO DCT ERDAS ERDAS1B |
| Aircraft | A21N/M-SDE2E3FGHIRWXY/LB1 |
Departure
| Time | 2026-05-05 15:31 |
|---|---|
| Airport | Jomo Kenyatta International Airport (HKJK) |
Arrival
| Time | 2026-05-05 20:41 |
|---|---|
| Airport | Cape Town International Airport (FACT) |
| Time | Latitude | Longitude | Altitude | Speed | Heading |
|---|---|---|---|---|---|
| 2026-05-05 14:53 | -1.32923 | 36.92651 | 5330 ft | 0 kts | 229° |
| 2026-05-05 15:20 | -1.32911 | 36.92665 | 5335 ft | 4 kts | 229° |
| 2026-05-05 15:20 | -1.32894 | 36.92684 | 5332 ft | 2 kts | 229° |
| 2026-05-05 15:20 | -1.32880 | 36.92704 | 5336 ft | 4 kts | 249° |
| 2026-05-05 15:21 | -1.32878 | 36.92727 | 5336 ft | 4 kts | 297° |
| 2026-05-05 15:21 | -1.32896 | 36.92745 | 5330 ft | 4 kts | 333° |
| 2026-05-05 15:21 | -1.32921 | 36.92755 | 5334 ft | 4 kts | 341° |
| 2026-05-05 15:21 | -1.32945 | 36.92764 | 5335 ft | 4 kts | 340° |
| 2026-05-05 15:22 | -1.32949 | 36.92765 | 5334 ft | 1 kts | 340° |
| 2026-05-05 15:26 | -1.32945 | 36.92764 | 5330 ft | 2 kts | 340° |
| 2026-05-05 15:26 | -1.32921 | 36.92754 | 5332 ft | 6 kts | 335° |
| 2026-05-05 15:26 | -1.32876 | 36.92728 | 5332 ft | 9 kts | 325° |
| 2026-05-05 15:26 | -1.32823 | 36.92673 | 5330 ft | 12 kts | 307° |
| 2026-05-05 15:27 | -1.32779 | 36.92595 | 5335 ft | 13 kts | 290° |
| 2026-05-05 15:27 | -1.32764 | 36.92500 | 5334 ft | 14 kts | 268° |
| 2026-05-05 15:27 | -1.32752 | 36.92402 | 5334 ft | 15 kts | 315° |
| 2026-05-05 15:27 | -1.32682 | 36.92321 | 5330 ft | 16 kts | 272° |
| 2026-05-05 15:28 | -1.32734 | 36.92230 | 5331 ft | 10 kts | 234° |
| 2026-05-05 15:28 | -1.32777 | 36.92170 | 5334 ft | 12 kts | 234° |
| 2026-05-05 15:28 | -1.32828 | 36.92100 | 5335 ft | 13 kts | 234° |
| 2026-05-05 15:28 | -1.32884 | 36.92024 | 5334 ft | 14 kts | 233° |
| 2026-05-05 15:29 | -1.32945 | 36.91941 | 5337 ft | 15 kts | 234° |
| 2026-05-05 15:29 | -1.32999 | 36.91845 | 5340 ft | 17 kts | 272° |
| 2026-05-05 15:29 | -1.32916 | 36.91762 | 5343 ft | 18 kts | 326° |
| 2026-05-05 15:29 | -1.32814 | 36.91689 | 5342 ft | 19 kts | 323° |
| 2026-05-05 15:30 | -1.32709 | 36.91697 | 5341 ft | 16 kts | 57° |
| 2026-05-05 15:30 | -1.32630 | 36.91810 | 5340 ft | 39 kts | 54° |
| 2026-05-05 15:30 | -1.32320 | 36.92238 | 5319 ft | 111 kts | 54° |
| 2026-05-05 15:30 | -1.31755 | 36.93009 | 5317 ft | 157 kts | 53° |
| 2026-05-05 15:31 | -1.31039 | 36.93972 | 5395 ft | 180 kts | 55° |
| 2026-05-05 15:31 | -1.30302 | 36.94980 | 5862 ft | 183 kts | 57° |
| 2026-05-05 15:31 | -1.29792 | 36.96141 | 6272 ft | 186 kts | 80° |
| 2026-05-05 15:31 | -1.29663 | 36.97426 | 6723 ft | 185 kts | 87° |
| 2026-05-05 15:32 | -1.29566 | 36.98731 | 7047 ft | 194 kts | 86° |
| 2026-05-05 15:32 | -1.29437 | 37.00122 | 7281 ft | 209 kts | 85° |
| 2026-05-05 15:32 | -1.29287 | 37.01620 | 7586 ft | 225 kts | 85° |
| 2026-05-05 15:32 | -1.29127 | 37.03221 | 7900 ft | 240 kts | 85° |
| 2026-05-05 15:33 | -1.28950 | 37.04949 | 8089 ft | 260 kts | 85° |
| 2026-05-05 15:33 | -1.28911 | 37.06811 | 8347 ft | 276 kts | 98° |
| 2026-05-05 15:33 | -1.29490 | 37.08653 | 8811 ft | 283 kts | 119° |
| 2026-05-05 15:33 | -1.30750 | 37.10177 | 9360 ft | 288 kts | 141° |
| 2026-05-05 15:34 | -1.32517 | 37.11119 | 9947 ft | 292 kts | 164° |
| 2026-05-05 15:34 | -1.34549 | 37.11326 | 10384 ft | 301 kts | 186° |
| 2026-05-05 15:34 | -1.36593 | 37.10710 | 10640 ft | 317 kts | 207° |
| 2026-05-05 15:34 | -1.38552 | 37.09589 | 10869 ft | 333 kts | 211° |
| 2026-05-05 15:35 | -1.40594 | 37.08363 | 11084 ft | 350 kts | 211° |
| 2026-05-05 15:35 | -1.42732 | 37.07120 | 11437 ft | 360 kts | 210° |
| 2026-05-05 15:35 | -1.44895 | 37.05893 | 11976 ft | 364 kts | 210° |
| 2026-05-05 15:35 | -1.47116 | 37.04648 | 12528 ft | 368 kts | 210° |
| 2026-05-05 15:36 | -1.49364 | 37.03391 | 13101 ft | 372 kts | 210° |
| 2026-05-05 15:36 | -1.51633 | 37.02118 | 13657 ft | 376 kts | 210° |
| 2026-05-05 15:36 | -1.53932 | 37.00841 | 14161 ft | 380 kts | 210° |
| 2026-05-05 15:36 | -1.56257 | 36.99553 | 14632 ft | 384 kts | 210° |
| 2026-05-05 15:37 | -1.58608 | 36.98254 | 15133 ft | 387 kts | 209° |
| 2026-05-05 15:37 | -1.60973 | 36.96945 | 15660 ft | 389 kts | 209° |
| 2026-05-05 15:37 | -1.63354 | 36.95625 | 16137 ft | 393 kts | 209° |
| 2026-05-05 15:37 | -1.65752 | 36.94291 | 16638 ft | 396 kts | 209° |
| 2026-05-05 15:38 | -1.68167 | 36.92944 | 17116 ft | 399 kts | 209° |
| 2026-05-05 15:38 | -1.70599 | 36.91587 | 17585 ft | 402 kts | 208° |
| 2026-05-05 15:38 | -1.73057 | 36.90223 | 18017 ft | 406 kts | 208° |
| 2026-05-05 15:38 | -1.75531 | 36.88846 | 18486 ft | 408 kts | 208° |
| 2026-05-05 15:39 | -1.78025 | 36.87462 | 18896 ft | 411 kts | 208° |
| 2026-05-05 15:39 | -1.80531 | 36.86071 | 19293 ft | 414 kts | 208° |
| 2026-05-05 15:39 | -1.83055 | 36.84668 | 19697 ft | 416 kts | 208° |
| 2026-05-05 15:39 | -1.85588 | 36.83261 | 20069 ft | 418 kts | 208° |
| 2026-05-05 15:40 | -1.88140 | 36.81845 | 20432 ft | 421 kts | 208° |
| 2026-05-05 15:40 | -1.90707 | 36.80421 | 20832 ft | 423 kts | 208° |
| 2026-05-05 15:40 | -1.93284 | 36.78989 | 21231 ft | 425 kts | 208° |
| 2026-05-05 15:40 | -1.95878 | 36.77547 | 21590 ft | 427 kts | 208° |
| 2026-05-05 15:41 | -1.98449 | 36.76122 | 21959 ft | 430 kts | 208° |
| 2026-05-05 15:41 | -2.01064 | 36.74668 | 22329 ft | 431 kts | 208° |
| 2026-05-05 15:41 | -2.03697 | 36.73205 | 22711 ft | 433 kts | 208° |
| 2026-05-05 15:41 | -2.06333 | 36.71739 | 23084 ft | 435 kts | 208° |
| 2026-05-05 15:42 | -2.08979 | 36.70267 | 23434 ft | 437 kts | 208° |
| 2026-05-05 15:42 | -2.11643 | 36.68786 | 23771 ft | 439 kts | 208° |
| 2026-05-05 15:42 | -2.14317 | 36.67301 | 24061 ft | 441 kts | 208° |
| 2026-05-05 15:42 | -2.17000 | 36.65811 | 24345 ft | 442 kts | 208° |
| 2026-05-05 15:43 | -2.19695 | 36.64313 | 24618 ft | 444 kts | 207° |
| 2026-05-05 15:43 | -2.22402 | 36.62810 | 24904 ft | 446 kts | 208° |
| 2026-05-05 15:43 | -2.25120 | 36.61303 | 25184 ft | 448 kts | 208° |
| 2026-05-05 15:43 | -2.27848 | 36.59787 | 25463 ft | 450 kts | 208° |
| 2026-05-05 15:44 | -2.30589 | 36.58262 | 25751 ft | 451 kts | 208° |
| 2026-05-05 15:44 | -2.33334 | 36.56734 | 26027 ft | 453 kts | 207° |
| 2026-05-05 15:44 | -2.36094 | 36.55199 | 26295 ft | 455 kts | 207° |
| 2026-05-05 15:44 | -2.38866 | 36.53658 | 26555 ft | 456 kts | 208° |
| 2026-05-05 15:45 | -2.41647 | 36.52111 | 26821 ft | 458 kts | 207° |
| 2026-05-05 15:45 | -2.44439 | 36.50558 | 27084 ft | 460 kts | 207° |
| 2026-05-05 15:45 | -2.47236 | 36.49002 | 27347 ft | 461 kts | 207° |
| 2026-05-05 15:45 | -2.50051 | 36.47439 | 27574 ft | 464 kts | 207° |
| 2026-05-05 15:46 | -2.52877 | 36.45871 | 27830 ft | 465 kts | 208° |
| 2026-05-05 15:46 | -2.55677 | 36.44316 | 28062 ft | 467 kts | 208° |
| 2026-05-05 15:46 | -2.58557 | 36.42713 | 28327 ft | 468 kts | 208° |
| 2026-05-05 15:46 | -2.61372 | 36.41147 | 28577 ft | 469 kts | 208° |
| 2026-05-05 15:47 | -2.64265 | 36.39535 | 28822 ft | 471 kts | 207° |
| 2026-05-05 15:47 | -2.66165 | 36.38478 | 28955 ft | 472 kts | 208° |
| 2026-05-05 15:47 | -2.70009 | 36.36337 | 29255 ft | 474 kts | 207° |
| 2026-05-05 15:47 | -2.72860 | 36.34752 | 29443 ft | 476 kts | 207° |
| 2026-05-05 15:48 | -2.75761 | 36.33140 | 29674 ft | 477 kts | 208° |
| 2026-05-05 15:48 | -2.78665 | 36.31526 | 29893 ft | 478 kts | 208° |
| 2026-05-05 15:48 | -2.81569 | 36.29909 | 30132 ft | 478 kts | 208° |
| 2026-05-05 15:48 | -2.84467 | 36.28295 | 30375 ft | 477 kts | 208° |
| 2026-05-05 15:49 | -2.87370 | 36.26681 | 30603 ft | 477 kts | 208° |
| 2026-05-05 15:49 | -2.90269 | 36.25068 | 30823 ft | 476 kts | 208° |
| 2026-05-05 15:49 | -2.93162 | 36.23459 | 31015 ft | 477 kts | 208° |
| 2026-05-05 15:49 | -2.96064 | 36.21844 | 31214 ft | 477 kts | 208° |
| 2026-05-05 15:50 | -2.98962 | 36.20230 | 31442 ft | 476 kts | 208° |
| 2026-05-05 15:50 | -3.00878 | 36.19162 | 31580 ft | 476 kts | 208° |
| 2026-05-05 15:50 | -3.03773 | 36.17551 | 31770 ft | 476 kts | 208° |
| 2026-05-05 15:50 | -3.06666 | 36.15943 | 31984 ft | 475 kts | 208° |
| 2026-05-05 15:51 | -3.09556 | 36.14333 | 32193 ft | 475 kts | 208° |
| 2026-05-05 15:51 | -3.12442 | 36.12731 | 32415 ft | 474 kts | 207° |
| 2026-05-05 15:51 | -3.15399 | 36.11281 | 32624 ft | 473 kts | 204° |
| 2026-05-05 15:51 | -3.18389 | 36.09910 | 32818 ft | 472 kts | 204° |
| 2026-05-05 15:52 | -3.21372 | 36.08550 | 33002 ft | 472 kts | 204° |
| 2026-05-05 15:52 | -3.24361 | 36.07189 | 33182 ft | 471 kts | 204° |
| 2026-05-05 15:52 | -3.27344 | 36.05829 | 33337 ft | 472 kts | 204° |
| 2026-05-05 15:52 | -3.30331 | 36.04468 | 33511 ft | 471 kts | 204° |
| 2026-05-05 15:53 | -3.33311 | 36.03109 | 33684 ft | 471 kts | 204° |
| 2026-05-05 15:53 | -3.36295 | 36.01746 | 33827 ft | 471 kts | 204° |
| 2026-05-05 15:53 | -3.39274 | 36.00385 | 33976 ft | 471 kts | 204° |
| 2026-05-05 15:53 | -3.42246 | 35.99028 | 34122 ft | 471 kts | 204° |
| 2026-05-05 15:54 | -3.45226 | 35.97668 | 34176 ft | 470 kts | 204° |
| 2026-05-05 15:54 | -3.51181 | 35.94948 | 34159 ft | 470 kts | 204° |
| 2026-05-05 15:55 | -3.57131 | 35.92225 | 34149 ft | 470 kts | 204° |
| 2026-05-05 15:55 | -3.63064 | 35.89473 | 34147 ft | 470 kts | 204° |
| 2026-05-05 15:56 | -3.68964 | 35.86740 | 34145 ft | 470 kts | 204° |
| 2026-05-05 15:56 | -3.74889 | 35.83994 | 34149 ft | 468 kts | 204° |
| 2026-05-05 15:57 | -3.80799 | 35.81255 | 34155 ft | 468 kts | 204° |
| 2026-05-05 15:57 | -3.86716 | 35.78513 | 34155 ft | 468 kts | 204° |
| 2026-05-05 15:58 | -3.92629 | 35.75772 | 34160 ft | 468 kts | 204° |
| 2026-05-05 15:58 | -3.98554 | 35.73026 | 34175 ft | 470 kts | 204° |
| 2026-05-05 15:59 | -4.04533 | 35.70344 | 34180 ft | 470 kts | 203° |
| 2026-05-05 15:59 | -4.10512 | 35.67682 | 34183 ft | 470 kts | 203° |
| 2026-05-05 16:00 | -4.16485 | 35.65008 | 34195 ft | 470 kts | 203° |
| 2026-05-05 16:00 | -4.22460 | 35.62330 | 34197 ft | 470 kts | 203° |
| 2026-05-05 16:01 | -4.28431 | 35.59644 | 34196 ft | 470 kts | 204° |
| 2026-05-05 16:01 | -4.34383 | 35.56915 | 34196 ft | 470 kts | 204° |
| 2026-05-05 16:02 | -4.40351 | 35.54186 | 34196 ft | 472 kts | 204° |
| 2026-05-05 16:02 | -4.46328 | 35.51460 | 34195 ft | 472 kts | 204° |
| 2026-05-05 16:03 | -4.52309 | 35.48729 | 34183 ft | 472 kts | 203° |
| 2026-05-05 16:03 | -4.58290 | 35.45997 | 34184 ft | 473 kts | 204° |
| 2026-05-05 16:04 | -4.64277 | 35.43261 | 34169 ft | 473 kts | 203° |
| 2026-05-05 16:04 | -4.70251 | 35.40533 | 34172 ft | 471 kts | 203° |
| 2026-05-05 16:05 | -4.76174 | 35.37829 | 34154 ft | 470 kts | 203° |
| 2026-05-05 16:05 | -4.82123 | 35.35113 | 34151 ft | 470 kts | 203° |
| 2026-05-05 16:06 | -4.88072 | 35.32393 | 34137 ft | 470 kts | 203° |
| 2026-05-05 16:06 | -4.94025 | 35.29673 | 34139 ft | 470 kts | 203° |
| 2026-05-05 16:07 | -4.99968 | 35.26955 | 34123 ft | 469 kts | 203° |
| 2026-05-05 16:07 | -5.05904 | 35.24239 | 34125 ft | 469 kts | 203° |
| 2026-05-05 16:08 | -5.11843 | 35.21522 | 34115 ft | 469 kts | 203° |
| 2026-05-05 16:08 | -5.17781 | 35.18808 | 34115 ft | 469 kts | 203° |
| 2026-05-05 16:09 | -5.23722 | 35.16083 | 34104 ft | 469 kts | 203° |
| 2026-05-05 16:09 | -5.29657 | 35.13358 | 34103 ft | 469 kts | 203° |
| 2026-05-05 16:10 | -5.35594 | 35.10635 | 34103 ft | 469 kts | 203° |
| 2026-05-05 16:10 | -5.41532 | 35.07911 | 34097 ft | 469 kts | 203° |
| 2026-05-05 16:11 | -5.47477 | 35.05177 | 34091 ft | 469 kts | 203° |
| 2026-05-05 16:12 | -5.59355 | 34.99725 | 34086 ft | 469 kts | 203° |
| 2026-05-05 16:13 | -5.74221 | 34.92891 | 34085 ft | 471 kts | 203° |
| 2026-05-05 16:13 | -5.80138 | 34.90171 | 34073 ft | 471 kts | 203° |
| 2026-05-05 16:14 | -5.92048 | 34.84707 | 34067 ft | 470 kts | 203° |
| 2026-05-05 16:15 | -6.03974 | 34.79224 | 34066 ft | 472 kts | 203° |
| 2026-05-05 16:16 | -6.15904 | 34.73743 | 34049 ft | 471 kts | 203° |
| 2026-05-05 16:17 | -6.24852 | 34.69629 | 34054 ft | 472 kts | 203° |
| 2026-05-05 16:18 | -6.33813 | 34.65509 | 34046 ft | 472 kts | 203° |
| 2026-05-05 16:19 | -6.42782 | 34.61374 | 34043 ft | 472 kts | 203° |
| 2026-05-05 16:19 | -6.51751 | 34.57246 | 34035 ft | 473 kts | 203° |
| 2026-05-05 16:20 | -6.63710 | 34.51738 | 34034 ft | 473 kts | 203° |
| 2026-05-05 16:22 | -6.78608 | 34.44875 | 34013 ft | 472 kts | 204° |
| 2026-05-05 16:23 | -6.90549 | 34.39368 | 34008 ft | 472 kts | 204° |
| 2026-05-05 16:23 | -6.99505 | 34.35234 | 34005 ft | 472 kts | 204° |
| 2026-05-05 16:24 | -7.05475 | 34.32479 | 34000 ft | 472 kts | 204° |
| 2026-05-05 16:25 | -7.14427 | 34.28346 | 33997 ft | 472 kts | 204° |
| 2026-05-05 16:25 | -7.23379 | 34.24213 | 33993 ft | 471 kts | 204° |
| 2026-05-05 16:26 | -7.35280 | 34.18712 | 33991 ft | 471 kts | 204° |
| 2026-05-05 16:27 | -7.41245 | 34.15964 | 33991 ft | 471 kts | 204° |
| 2026-05-05 16:27 | -7.47200 | 34.13207 | 33994 ft | 471 kts | 204° |
| 2026-05-05 16:28 | -7.53156 | 34.10455 | 33993 ft | 471 kts | 204° |
| 2026-05-05 16:28 | -7.59061 | 34.07720 | 33996 ft | 469 kts | 204° |
| 2026-05-05 16:29 | -7.64993 | 34.04970 | 33997 ft | 469 kts | 204° |
| 2026-05-05 16:29 | -7.70929 | 34.02216 | 33996 ft | 469 kts | 204° |
| 2026-05-05 16:30 | -7.76863 | 33.99465 | 33996 ft | 469 kts | 204° |
| 2026-05-05 16:30 | -7.82801 | 33.96716 | 33993 ft | 470 kts | 204° |
| 2026-05-05 16:31 | -7.88736 | 33.93971 | 33993 ft | 469 kts | 204° |
| 2026-05-05 16:31 | -7.94664 | 33.91219 | 33980 ft | 468 kts | 205° |
| 2026-05-05 16:32 | -8.00585 | 33.88473 | 33982 ft | 468 kts | 204° |
| 2026-05-05 16:32 | -8.06516 | 33.85724 | 33982 ft | 469 kts | 204° |
| 2026-05-05 16:33 | -8.12440 | 33.82971 | 33973 ft | 469 kts | 204° |
| 2026-05-05 16:33 | -8.18360 | 33.80223 | 33975 ft | 468 kts | 204° |
| 2026-05-05 16:34 | -8.24290 | 33.77471 | 33972 ft | 468 kts | 205° |
| 2026-05-05 16:34 | -8.30219 | 33.74719 | 33973 ft | 469 kts | 205° |
| 2026-05-05 16:35 | -8.36104 | 33.71986 | 33966 ft | 469 kts | 204° |
| 2026-05-05 16:35 | -8.42029 | 33.69237 | 33964 ft | 469 kts | 204° |
| 2026-05-05 16:36 | -8.47959 | 33.66483 | 33969 ft | 469 kts | 205° |
| 2026-05-05 16:36 | -8.53898 | 33.63720 | 33971 ft | 469 kts | 204° |
| 2026-05-05 16:37 | -8.59813 | 33.60972 | 33985 ft | 468 kts | 204° |
| 2026-05-05 16:37 | -8.64773 | 33.58662 | 33984 ft | 468 kts | 204° |
| 2026-05-05 16:38 | -8.70686 | 33.55909 | 33985 ft | 468 kts | 204° |
| 2026-05-05 16:38 | -8.76600 | 33.53153 | 34002 ft | 468 kts | 204° |
| 2026-05-05 16:39 | -8.82474 | 33.50416 | 34006 ft | 468 kts | 204° |
| 2026-05-05 16:39 | -8.88385 | 33.47657 | 34018 ft | 469 kts | 204° |
| 2026-05-05 16:40 | -8.94101 | 33.44500 | 34021 ft | 469 kts | 216° |
| 2026-05-05 16:40 | -8.99322 | 33.40516 | 34035 ft | 470 kts | 217° |
| 2026-05-05 16:41 | -9.04534 | 33.36520 | 34027 ft | 470 kts | 217° |
| 2026-05-05 16:41 | -9.09758 | 33.32552 | 34026 ft | 470 kts | 217° |
| 2026-05-05 16:42 | -9.14988 | 33.28578 | 34029 ft | 469 kts | 217° |
| 2026-05-05 16:42 | -9.20210 | 33.24603 | 34026 ft | 470 kts | 216° |
| 2026-05-05 16:43 | -9.25449 | 33.20612 | 34028 ft | 470 kts | 217° |
| 2026-05-05 16:43 | -9.30679 | 33.16620 | 34028 ft | 471 kts | 217° |
| 2026-05-05 16:44 | -9.35909 | 33.12628 | 34018 ft | 472 kts | 217° |
| 2026-05-05 16:44 | -9.41142 | 33.08638 | 34007 ft | 471 kts | 217° |
| 2026-05-05 16:45 | -9.46373 | 33.04641 | 34003 ft | 470 kts | 217° |
| 2026-05-05 16:45 | -9.51581 | 33.00631 | 34001 ft | 469 kts | 217° |
| 2026-05-05 16:46 | -9.56781 | 32.96628 | 33989 ft | 469 kts | 218° |
| 2026-05-05 16:46 | -9.61987 | 32.92627 | 33991 ft | 470 kts | 218° |
| 2026-05-05 16:47 | -9.67147 | 32.88652 | 33990 ft | 469 kts | 218° |
| 2026-05-05 16:47 | -9.72331 | 32.84662 | 33989 ft | 467 kts | 218° |
| 2026-05-05 16:48 | -9.77510 | 32.80673 | 33983 ft | 467 kts | 218° |
| 2026-05-05 16:48 | -9.82685 | 32.76676 | 33977 ft | 467 kts | 218° |
| 2026-05-05 16:49 | -9.87854 | 32.72672 | 33973 ft | 467 kts | 218° |
| 2026-05-05 16:49 | -9.93032 | 32.68675 | 33971 ft | 467 kts | 218° |
| 2026-05-05 16:50 | -9.98208 | 32.64691 | 33970 ft | 467 kts | 218° |
| 2026-05-05 16:50 | -10.03384 | 32.60693 | 33971 ft | 467 kts | 218° |
| 2026-05-05 16:51 | -10.08516 | 32.56726 | 33973 ft | 466 kts | 218° |
| 2026-05-05 16:51 | -10.13675 | 32.52737 | 33973 ft | 467 kts | 218° |
| 2026-05-05 16:52 | -10.18838 | 32.48741 | 33973 ft | 467 kts | 218° |
| 2026-05-05 16:52 | -10.23993 | 32.44750 | 33973 ft | 465 kts | 218° |
| 2026-05-05 16:53 | -10.29145 | 32.40760 | 33973 ft | 466 kts | 218° |
| 2026-05-05 16:53 | -10.34296 | 32.36780 | 33974 ft | 466 kts | 218° |
| 2026-05-05 16:54 | -10.39449 | 32.32788 | 33974 ft | 465 kts | 218° |
| 2026-05-05 16:54 | -10.44597 | 32.28798 | 33970 ft | 465 kts | 218° |
| 2026-05-05 16:55 | -10.49745 | 32.24812 | 33977 ft | 465 kts | 218° |
| 2026-05-05 16:55 | -10.54888 | 32.20819 | 33977 ft | 465 kts | 218° |
| 2026-05-05 16:56 | -10.60025 | 32.16834 | 33977 ft | 464 kts | 218° |
| 2026-05-05 16:56 | -10.65163 | 32.12851 | 33976 ft | 465 kts | 218° |
| 2026-05-05 16:57 | -10.70297 | 32.08860 | 33976 ft | 464 kts | 218° |
| 2026-05-05 16:57 | -10.75426 | 32.04873 | 33988 ft | 464 kts | 218° |
| 2026-05-05 16:58 | -10.80565 | 32.00886 | 33988 ft | 464 kts | 218° |
| 2026-05-05 16:58 | -10.85695 | 31.96898 | 33988 ft | 464 kts | 218° |
| 2026-05-05 16:59 | -10.90838 | 31.92908 | 33995 ft | 464 kts | 218° |
| 2026-05-05 16:59 | -10.95968 | 31.88911 | 33997 ft | 464 kts | 219° |
| 2026-05-05 17:00 | -11.01101 | 31.84914 | 33993 ft | 464 kts | 219° |
| 2026-05-05 17:00 | -11.06191 | 31.80942 | 34003 ft | 464 kts | 218° |
| 2026-05-05 17:01 | -11.11326 | 31.76948 | 34004 ft | 464 kts | 219° |
| 2026-05-05 17:01 | -11.16454 | 31.72956 | 34004 ft | 464 kts | 219° |
| 2026-05-05 17:02 | -11.21587 | 31.68961 | 34005 ft | 464 kts | 219° |
| 2026-05-05 17:02 | -11.26703 | 31.64966 | 34005 ft | 463 kts | 219° |
| 2026-05-05 17:03 | -11.31820 | 31.60968 | 34007 ft | 463 kts | 219° |
| 2026-05-05 17:03 | -11.36935 | 31.56977 | 34007 ft | 463 kts | 219° |
| 2026-05-05 17:04 | -11.42054 | 31.52978 | 34006 ft | 463 kts | 219° |
| 2026-05-05 17:04 | -11.47176 | 31.48986 | 34004 ft | 463 kts | 219° |
| 2026-05-05 17:05 | -11.52286 | 31.44989 | 34002 ft | 463 kts | 219° |
| 2026-05-05 17:05 | -11.57405 | 31.40992 | 33997 ft | 463 kts | 219° |
| 2026-05-05 17:06 | -11.62467 | 31.37034 | 34003 ft | 461 kts | 219° |
| 2026-05-05 17:06 | -11.67552 | 31.33051 | 34003 ft | 461 kts | 219° |
| 2026-05-05 17:07 | -11.72635 | 31.29068 | 34001 ft | 461 kts | 219° |
| 2026-05-05 17:07 | -11.77720 | 31.25084 | 34001 ft | 461 kts | 219° |
| 2026-05-05 17:08 | -11.82797 | 31.21109 | 33999 ft | 459 kts | 219° |
| 2026-05-05 17:08 | -11.87869 | 31.17133 | 34000 ft | 460 kts | 219° |
| 2026-05-05 17:09 | -11.92935 | 31.13155 | 34003 ft | 459 kts | 220° |
| 2026-05-05 17:09 | -11.97996 | 31.09186 | 33999 ft | 458 kts | 220° |
| 2026-05-05 17:10 | -12.03055 | 31.05216 | 34001 ft | 458 kts | 220° |
| 2026-05-05 17:10 | -12.08107 | 31.01246 | 34002 ft | 459 kts | 220° |
| 2026-05-05 17:11 | -12.13133 | 30.97295 | 34008 ft | 458 kts | 220° |
| 2026-05-05 17:11 | -12.18192 | 30.93322 | 33996 ft | 458 kts | 220° |
| 2026-05-05 17:12 | -12.23243 | 30.89347 | 33997 ft | 458 kts | 220° |
| 2026-05-05 17:12 | -12.28296 | 30.85369 | 34011 ft | 457 kts | 220° |
| 2026-05-05 17:13 | -12.33335 | 30.81407 | 34006 ft | 457 kts | 220° |
| 2026-05-05 17:13 | -12.38369 | 30.77444 | 34006 ft | 457 kts | 220° |
| 2026-05-05 17:14 | -12.43402 | 30.73477 | 34004 ft | 457 kts | 220° |
| 2026-05-05 17:14 | -12.48433 | 30.69504 | 34002 ft | 457 kts | 220° |
| 2026-05-05 17:15 | -12.53462 | 30.65536 | 34002 ft | 457 kts | 220° |
| 2026-05-05 17:15 | -12.58493 | 30.61565 | 34000 ft | 457 kts | 220° |
| 2026-05-05 17:16 | -12.63489 | 30.57623 | 34002 ft | 455 kts | 220° |
| 2026-05-05 17:16 | -12.68495 | 30.53666 | 34000 ft | 455 kts | 220° |
| 2026-05-05 17:17 | -12.73514 | 30.49699 | 34001 ft | 455 kts | 220° |
| 2026-05-05 17:17 | -12.78526 | 30.45733 | 33999 ft | 455 kts | 220° |
| 2026-05-05 17:18 | -12.83544 | 30.41767 | 34007 ft | 455 kts | 220° |
| 2026-05-05 17:18 | -12.88555 | 30.37799 | 34000 ft | 456 kts | 220° |
| 2026-05-05 17:19 | -12.93574 | 30.33822 | 34032 ft | 456 kts | 220° |
| 2026-05-05 17:19 | -12.96084 | 30.31833 | 34192 ft | 456 kts | 220° |
| 2026-05-05 17:19 | -12.98595 | 30.29845 | 34402 ft | 455 kts | 220° |
| 2026-05-05 17:20 | -13.01098 | 30.27864 | 34582 ft | 454 kts | 220° |
| 2026-05-05 17:20 | -13.03599 | 30.25881 | 34735 ft | 454 kts | 220° |
| 2026-05-05 17:20 | -13.06101 | 30.23901 | 34872 ft | 455 kts | 220° |
| 2026-05-05 17:20 | -13.08604 | 30.21919 | 35000 ft | 455 kts | 220° |
| 2026-05-05 17:21 | -13.11111 | 30.19932 | 35128 ft | 455 kts | 220° |
| 2026-05-05 17:21 | -13.13616 | 30.17948 | 35260 ft | 456 kts | 220° |
| 2026-05-05 17:21 | -13.16124 | 30.15960 | 35390 ft | 455 kts | 220° |
| 2026-05-05 17:22 | -13.21135 | 30.11984 | 35668 ft | 455 kts | 220° |
| 2026-05-05 17:22 | -13.23634 | 30.09999 | 35798 ft | 455 kts | 220° |
| 2026-05-05 17:22 | -13.26134 | 30.08012 | 35932 ft | 454 kts | 220° |
| 2026-05-05 17:23 | -13.31132 | 30.04042 | 36045 ft | 454 kts | 220° |
| 2026-05-05 17:23 | -13.36128 | 30.00081 | 36027 ft | 453 kts | 220° |
| 2026-05-05 17:24 | -13.41117 | 29.96115 | 36023 ft | 453 kts | 220° |
| 2026-05-05 17:24 | -13.46110 | 29.92147 | 36029 ft | 453 kts | 220° |
| 2026-05-05 17:25 | -13.51062 | 29.88211 | 36029 ft | 453 kts | 220° |
| 2026-05-05 17:25 | -13.56044 | 29.84245 | 36029 ft | 453 kts | 220° |
| 2026-05-05 17:26 | -13.61026 | 29.80274 | 36033 ft | 453 kts | 220° |
| 2026-05-05 17:26 | -13.66007 | 29.76306 | 36033 ft | 453 kts | 220° |
| 2026-05-05 17:27 | -13.70976 | 29.72351 | 36033 ft | 451 kts | 220° |
| 2026-05-05 17:27 | -13.75095 | 29.69063 | 36033 ft | 451 kts | 220° |
| 2026-05-05 17:28 | -13.80052 | 29.65107 | 36033 ft | 451 kts | 220° |
| 2026-05-05 17:28 | -13.85015 | 29.61149 | 36036 ft | 451 kts | 220° |
| 2026-05-05 17:29 | -13.89968 | 29.57186 | 36033 ft | 451 kts | 220° |
| 2026-05-05 17:29 | -13.94923 | 29.53227 | 36038 ft | 451 kts | 220° |
| 2026-05-05 17:30 | -13.99886 | 29.49261 | 36033 ft | 451 kts | 220° |
| 2026-05-05 17:30 | -14.04844 | 29.45296 | 36034 ft | 451 kts | 221° |
| 2026-05-05 17:31 | -14.09797 | 29.41334 | 36030 ft | 451 kts | 221° |
| 2026-05-05 17:31 | -14.14749 | 29.37363 | 36029 ft | 451 kts | 221° |
| 2026-05-05 17:32 | -14.19695 | 29.33398 | 36026 ft | 451 kts | 221° |
| 2026-05-05 17:32 | -14.24645 | 29.29431 | 36030 ft | 451 kts | 221° |
| 2026-05-05 17:33 | -14.29589 | 29.25459 | 36030 ft | 451 kts | 221° |
| 2026-05-05 17:33 | -14.34505 | 29.21515 | 36024 ft | 450 kts | 221° |
| 2026-05-05 17:34 | -14.39445 | 29.17548 | 36029 ft | 449 kts | 221° |
| 2026-05-05 17:34 | -14.44371 | 29.13588 | 36024 ft | 449 kts | 221° |
| 2026-05-05 17:35 | -14.49296 | 29.09630 | 36023 ft | 449 kts | 221° |
| 2026-05-05 17:35 | -14.54221 | 29.05671 | 36013 ft | 449 kts | 221° |
| 2026-05-05 17:36 | -14.59144 | 29.01708 | 36008 ft | 449 kts | 221° |
| 2026-05-05 17:36 | -14.64064 | 28.97738 | 36014 ft | 449 kts | 221° |
| 2026-05-05 17:37 | -14.68987 | 28.93769 | 36015 ft | 448 kts | 221° |
| 2026-05-05 17:37 | -14.73900 | 28.89807 | 36015 ft | 448 kts | 222° |
| 2026-05-05 17:38 | -14.78814 | 28.85844 | 36017 ft | 448 kts | 222° |
| 2026-05-05 17:38 | -14.83721 | 28.81879 | 36014 ft | 447 kts | 222° |
| 2026-05-05 17:39 | -14.88618 | 28.77921 | 36020 ft | 448 kts | 222° |
| 2026-05-05 17:39 | -14.93526 | 28.73957 | 36030 ft | 448 kts | 222° |
| 2026-05-05 17:40 | -14.98436 | 28.69989 | 36023 ft | 448 kts | 222° |
| 2026-05-05 17:40 | -15.03347 | 28.66011 | 36035 ft | 448 kts | 222° |
| 2026-05-05 17:41 | -15.08252 | 28.62036 | 36034 ft | 447 kts | 222° |
| 2026-05-05 17:41 | -15.13150 | 28.58067 | 36030 ft | 447 kts | 222° |
| 2026-05-05 17:42 | -15.18047 | 28.54098 | 36034 ft | 447 kts | 222° |
| 2026-05-05 17:42 | -15.22938 | 28.50129 | 36030 ft | 447 kts | 222° |
| 2026-05-05 17:43 | -15.27827 | 28.46154 | 36025 ft | 447 kts | 222° |
| 2026-05-05 17:43 | -15.32747 | 28.42201 | 36026 ft | 449 kts | 219° |
| 2026-05-05 17:44 | -15.38011 | 28.38765 | 36016 ft | 451 kts | 216° |
| 2026-05-05 17:44 | -15.43351 | 28.35367 | 36024 ft | 450 kts | 216° |
| 2026-05-05 17:45 | -15.48668 | 28.31972 | 36008 ft | 449 kts | 216° |
| 2026-05-05 17:45 | -15.53983 | 28.28579 | 36000 ft | 449 kts | 216° |
| 2026-05-05 17:46 | -15.59299 | 28.25180 | 35998 ft | 449 kts | 216° |
| 2026-05-05 17:46 | -15.64611 | 28.21774 | 35994 ft | 449 kts | 216° |
| 2026-05-05 17:47 | -15.69925 | 28.18365 | 35983 ft | 449 kts | 216° |
| 2026-05-05 17:47 | -15.75237 | 28.14964 | 35982 ft | 449 kts | 216° |
| 2026-05-05 17:48 | -15.80549 | 28.11557 | 35983 ft | 449 kts | 215° |
| 2026-05-05 17:48 | -15.85860 | 28.08154 | 35983 ft | 448 kts | 216° |
| 2026-05-05 17:49 | -15.91170 | 28.04745 | 35977 ft | 448 kts | 216° |
| 2026-05-05 17:49 | -15.96470 | 28.01334 | 35977 ft | 448 kts | 216° |
| 2026-05-05 17:50 | -16.01764 | 27.97925 | 35977 ft | 448 kts | 216° |
| 2026-05-05 17:50 | -16.07067 | 27.94516 | 35969 ft | 448 kts | 216° |
| 2026-05-05 17:51 | -16.12362 | 27.91099 | 35974 ft | 448 kts | 216° |
| 2026-05-05 17:51 | -16.17662 | 27.87690 | 35962 ft | 448 kts | 216° |
| 2026-05-05 17:52 | -16.22957 | 27.84275 | 35961 ft | 448 kts | 216° |
| 2026-05-05 17:52 | -16.28260 | 27.80860 | 35956 ft | 448 kts | 216° |
| 2026-05-05 17:53 | -16.33552 | 27.77441 | 35946 ft | 447 kts | 216° |
| 2026-05-05 17:53 | -16.38809 | 27.74050 | 35947 ft | 448 kts | 216° |
| 2026-05-05 17:54 | -16.44099 | 27.70631 | 35954 ft | 448 kts | 216° |
| 2026-05-05 17:54 | -16.49389 | 27.67209 | 35941 ft | 448 kts | 216° |
| 2026-05-05 17:55 | -16.54682 | 27.63783 | 35939 ft | 448 kts | 216° |
| 2026-05-05 17:55 | -16.59968 | 27.60354 | 35941 ft | 448 kts | 216° |
| 2026-05-05 17:56 | -16.65260 | 27.56931 | 35950 ft | 447 kts | 216° |
| 2026-05-05 17:56 | -16.70556 | 27.53501 | 35950 ft | 448 kts | 216° |
| 2026-05-05 17:57 | -16.75847 | 27.50071 | 35946 ft | 447 kts | 216° |
| 2026-05-05 17:57 | -16.81132 | 27.46643 | 35964 ft | 447 kts | 217° |
| 2026-05-05 17:58 | -16.86411 | 27.43216 | 35956 ft | 447 kts | 216° |
| 2026-05-05 17:58 | -16.91646 | 27.39809 | 35954 ft | 446 kts | 217° |
| 2026-05-05 17:59 | -16.96914 | 27.36373 | 35957 ft | 447 kts | 217° |
| 2026-05-05 17:59 | -17.02183 | 27.32935 | 35971 ft | 447 kts | 217° |
| 2026-05-05 18:00 | -17.07459 | 27.29496 | 35971 ft | 447 kts | 217° |
| 2026-05-05 18:00 | -17.12740 | 27.26060 | 35969 ft | 447 kts | 217° |
| 2026-05-05 18:01 | -17.18025 | 27.22615 | 35976 ft | 448 kts | 217° |
| 2026-05-05 18:01 | -17.23324 | 27.19163 | 35976 ft | 448 kts | 217° |
| 2026-05-05 18:02 | -17.28608 | 27.15710 | 35978 ft | 448 kts | 217° |
| 2026-05-05 18:02 | -17.33858 | 27.12273 | 35972 ft | 448 kts | 217° |
| 2026-05-05 18:03 | -17.39148 | 27.08814 | 35988 ft | 448 kts | 217° |
| 2026-05-05 18:03 | -17.44433 | 27.05354 | 35975 ft | 448 kts | 217° |
| 2026-05-05 18:04 | -17.49727 | 27.01890 | 35982 ft | 449 kts | 217° |
| 2026-05-05 18:04 | -17.55014 | 26.98421 | 35984 ft | 448 kts | 217° |
| 2026-05-05 18:05 | -17.60302 | 26.94946 | 35986 ft | 449 kts | 217° |
| 2026-05-05 18:05 | -17.65597 | 26.91471 | 35994 ft | 449 kts | 217° |
| 2026-05-05 18:06 | -17.70889 | 26.87993 | 35975 ft | 449 kts | 217° |
| 2026-05-05 18:06 | -17.76175 | 26.84519 | 35988 ft | 448 kts | 218° |
| 2026-05-05 18:07 | -17.81454 | 26.81045 | 35990 ft | 448 kts | 218° |
| 2026-05-05 18:07 | -17.86730 | 26.77572 | 35982 ft | 447 kts | 218° |
| 2026-05-05 18:08 | -17.92004 | 26.74096 | 35994 ft | 448 kts | 218° |
| 2026-05-05 18:08 | -17.97279 | 26.70618 | 35989 ft | 448 kts | 218° |
| 2026-05-05 18:09 | -18.02524 | 26.67162 | 35987 ft | 448 kts | 218° |
| 2026-05-05 18:09 | -18.08104 | 26.64142 | 35982 ft | 455 kts | 209° |
| 2026-05-05 18:10 | -18.13936 | 26.61535 | 35993 ft | 455 kts | 209° |
| 2026-05-05 18:10 | -18.19751 | 26.58911 | 36001 ft | 455 kts | 210° |
| 2026-05-05 18:11 | -18.25558 | 26.56280 | 36018 ft | 454 kts | 210° |
| 2026-05-05 18:11 | -18.31348 | 26.53666 | 36004 ft | 452 kts | 210° |
| 2026-05-05 18:12 | -18.37120 | 26.51057 | 36012 ft | 452 kts | 210° |
| 2026-05-05 18:12 | -18.42899 | 26.48443 | 36017 ft | 452 kts | 210° |
| 2026-05-05 18:13 | -18.48674 | 26.45825 | 36045 ft | 452 kts | 210° |
| 2026-05-05 18:13 | -18.54451 | 26.43207 | 36029 ft | 452 kts | 210° |
| 2026-05-05 18:14 | -18.60229 | 26.40587 | 36023 ft | 452 kts | 210° |
| 2026-05-05 18:14 | -18.65969 | 26.37985 | 36020 ft | 452 kts | 210° |
| 2026-05-05 18:15 | -18.71747 | 26.35362 | 36020 ft | 452 kts | 210° |
| 2026-05-05 18:15 | -18.77522 | 26.32737 | 36017 ft | 452 kts | 210° |
| 2026-05-05 18:16 | -18.83295 | 26.30108 | 36030 ft | 452 kts | 211° |
| 2026-05-05 18:16 | -18.89075 | 26.27476 | 36021 ft | 452 kts | 211° |
| 2026-05-05 18:17 | -18.93878 | 26.25291 | 36013 ft | 452 kts | 211° |
| 2026-05-05 18:17 | -18.99649 | 26.22663 | 36004 ft | 451 kts | 211° |
| 2026-05-05 18:18 | -19.05410 | 26.20035 | 36012 ft | 451 kts | 211° |
| 2026-05-05 18:18 | -19.11171 | 26.17404 | 36002 ft | 451 kts | 211° |
| 2026-05-05 18:19 | -19.16933 | 26.14775 | 36006 ft | 451 kts | 211° |
| 2026-05-05 18:19 | -19.22696 | 26.12135 | 35990 ft | 451 kts | 211° |
| 2026-05-05 18:20 | -19.28465 | 26.09494 | 35980 ft | 451 kts | 211° |
| 2026-05-05 18:20 | -19.34178 | 26.06764 | 35979 ft | 450 kts | 213° |
| 2026-05-05 18:21 | -19.39852 | 26.03965 | 35980 ft | 450 kts | 213° |
| 2026-05-05 18:21 | -19.45521 | 26.01161 | 35969 ft | 450 kts | 213° |
| 2026-05-05 18:22 | -19.51190 | 25.98353 | 35975 ft | 450 kts | 213° |
| 2026-05-05 18:22 | -19.56868 | 25.95554 | 35964 ft | 450 kts | 213° |
| 2026-05-05 18:23 | -19.62532 | 25.92750 | 35962 ft | 449 kts | 213° |
| 2026-05-05 18:23 | -19.68194 | 25.89942 | 35954 ft | 449 kts | 213° |
| 2026-05-05 18:24 | -19.73861 | 25.87135 | 35951 ft | 449 kts | 213° |
| 2026-05-05 18:24 | -19.79518 | 25.84327 | 35950 ft | 449 kts | 213° |
| 2026-05-05 18:25 | -19.85178 | 25.81512 | 35951 ft | 449 kts | 214° |
| 2026-05-05 18:25 | -19.90644 | 25.78474 | 35945 ft | 445 kts | 217° |
| 2026-05-05 18:26 | -19.96090 | 25.75334 | 35940 ft | 445 kts | 217° |
| 2026-05-05 18:26 | -20.01571 | 25.72177 | 35941 ft | 445 kts | 217° |
| 2026-05-05 18:27 | -20.06984 | 25.69057 | 35934 ft | 445 kts | 217° |
| 2026-05-05 18:27 | -20.12428 | 25.65914 | 35931 ft | 445 kts | 217° |
| 2026-05-05 18:28 | -20.20593 | 25.61199 | 35923 ft | 445 kts | 217° |
| 2026-05-05 18:28 | -20.26031 | 25.58049 | 35921 ft | 445 kts | 217° |
| 2026-05-05 18:29 | -20.31468 | 25.54904 | 35921 ft | 445 kts | 217° |
| 2026-05-05 18:29 | -20.36910 | 25.51755 | 35911 ft | 445 kts | 217° |
| 2026-05-05 18:30 | -20.42346 | 25.48606 | 35907 ft | 445 kts | 217° |
| 2026-05-05 18:30 | -20.47774 | 25.45453 | 35920 ft | 445 kts | 218° |
| 2026-05-05 18:31 | -20.53215 | 25.42297 | 35901 ft | 445 kts | 218° |
| 2026-05-05 18:31 | -20.58759 | 25.39314 | 35897 ft | 453 kts | 211° |
| 2026-05-05 18:32 | -20.64638 | 25.36862 | 35892 ft | 454 kts | 210° |
| 2026-05-05 18:32 | -20.70518 | 25.34420 | 35888 ft | 453 kts | 210° |
| 2026-05-05 18:33 | -20.76349 | 25.31982 | 35901 ft | 453 kts | 211° |
| 2026-05-05 18:33 | -20.82211 | 25.29524 | 35906 ft | 453 kts | 211° |
| 2026-05-05 18:34 | -20.88081 | 25.27064 | 35887 ft | 453 kts | 211° |
| 2026-05-05 18:34 | -20.93944 | 25.24607 | 35875 ft | 453 kts | 211° |
| 2026-05-05 18:35 | -20.99812 | 25.22146 | 35880 ft | 453 kts | 211° |
| 2026-05-05 18:35 | -21.05699 | 25.19724 | 35879 ft | 454 kts | 210° |
| 2026-05-05 18:36 | -21.11613 | 25.17336 | 35918 ft | 454 kts | 211° |
| 2026-05-05 18:36 | -21.17518 | 25.14930 | 35891 ft | 454 kts | 211° |
| 2026-05-05 18:37 | -21.23426 | 25.12522 | 35880 ft | 454 kts | 211° |
| 2026-05-05 18:37 | -21.29329 | 25.10113 | 35881 ft | 454 kts | 211° |
| 2026-05-05 18:38 | -21.35224 | 25.07681 | 35880 ft | 453 kts | 211° |
| 2026-05-05 18:38 | -21.41098 | 25.05203 | 35879 ft | 453 kts | 211° |
| 2026-05-05 18:39 | -21.46974 | 25.02729 | 35890 ft | 454 kts | 211° |
| 2026-05-05 18:39 | -21.52862 | 25.00250 | 35887 ft | 454 kts | 211° |
| 2026-05-05 18:40 | -21.58746 | 24.97778 | 35874 ft | 454 kts | 211° |
| 2026-05-05 18:40 | -21.64628 | 24.95310 | 35862 ft | 454 kts | 211° |
| 2026-05-05 18:41 | -21.70516 | 24.92842 | 35869 ft | 454 kts | 211° |
| 2026-05-05 18:41 | -21.76393 | 24.90373 | 35912 ft | 454 kts | 211° |
| 2026-05-05 18:42 | -21.82227 | 24.87917 | 35884 ft | 453 kts | 211° |
| 2026-05-05 18:42 | -21.88099 | 24.85445 | 35879 ft | 453 kts | 211° |
| 2026-05-05 18:43 | -21.93980 | 24.82994 | 35880 ft | 453 kts | 210° |
| 2026-05-05 18:43 | -21.99898 | 24.80630 | 35880 ft | 453 kts | 210° |
| 2026-05-05 18:44 | -22.05806 | 24.78251 | 35887 ft | 453 kts | 210° |
| 2026-05-05 18:44 | -22.11720 | 24.75861 | 35903 ft | 454 kts | 210° |
| 2026-05-05 18:45 | -22.17638 | 24.73468 | 35909 ft | 454 kts | 210° |
| 2026-05-05 18:45 | -22.23557 | 24.71077 | 35908 ft | 454 kts | 210° |
| 2026-05-05 18:46 | -22.29464 | 24.68680 | 35920 ft | 454 kts | 210° |
| 2026-05-05 18:46 | -22.35380 | 24.66283 | 35926 ft | 454 kts | 210° |
| 2026-05-05 18:47 | -22.41288 | 24.63881 | 35955 ft | 454 kts | 211° |
| 2026-05-05 18:47 | -22.47168 | 24.61400 | 35936 ft | 454 kts | 211° |
| 2026-05-05 18:48 | -22.53050 | 24.58908 | 35939 ft | 454 kts | 211° |
| 2026-05-05 18:48 | -22.58942 | 24.56421 | 35938 ft | 454 kts | 211° |
| 2026-05-05 18:49 | -22.64836 | 24.53928 | 35946 ft | 454 kts | 211° |
| 2026-05-05 18:49 | -22.70722 | 24.51437 | 35946 ft | 454 kts | 211° |
| 2026-05-05 18:50 | -22.76588 | 24.48957 | 35957 ft | 456 kts | 211° |
| 2026-05-05 18:50 | -22.82517 | 24.46496 | 35954 ft | 456 kts | 211° |
| 2026-05-05 18:51 | -22.88443 | 24.44034 | 35953 ft | 456 kts | 211° |
| 2026-05-05 18:51 | -22.94370 | 24.41569 | 35959 ft | 456 kts | 211° |
| 2026-05-05 18:52 | -23.00292 | 24.39099 | 35957 ft | 456 kts | 211° |
| 2026-05-05 18:52 | -23.06219 | 24.36624 | 35970 ft | 457 kts | 211° |
| 2026-05-05 18:53 | -23.12156 | 24.34143 | 35967 ft | 457 kts | 211° |
| 2026-05-05 18:53 | -23.18097 | 24.31653 | 35960 ft | 457 kts | 211° |
| 2026-05-05 18:54 | -23.24035 | 24.29160 | 35954 ft | 457 kts | 211° |
| 2026-05-05 18:54 | -23.29980 | 24.26666 | 35974 ft | 457 kts | 211° |
| 2026-05-05 18:55 | -23.35914 | 24.24174 | 35970 ft | 457 kts | 211° |
| 2026-05-05 18:55 | -23.41812 | 24.21693 | 35978 ft | 457 kts | 211° |
| 2026-05-05 18:56 | -23.47749 | 24.19196 | 35976 ft | 457 kts | 211° |
| 2026-05-05 18:56 | -23.53677 | 24.16697 | 35979 ft | 456 kts | 211° |
| 2026-05-05 18:57 | -23.59590 | 24.14189 | 35984 ft | 456 kts | 211° |
| 2026-05-05 18:57 | -23.65501 | 24.11674 | 35988 ft | 456 kts | 212° |
| 2026-05-05 18:58 | -23.71403 | 24.09162 | 36011 ft | 456 kts | 212° |
| 2026-05-05 18:58 | -23.77316 | 24.06650 | 36020 ft | 456 kts | 212° |
| 2026-05-05 18:59 | -23.83187 | 24.04132 | 35996 ft | 452 kts | 212° |
| 2026-05-05 18:59 | -23.89029 | 24.01596 | 35995 ft | 452 kts | 212° |
| 2026-05-05 19:00 | -23.94871 | 23.99065 | 36009 ft | 452 kts | 212° |
| 2026-05-05 19:00 | -24.00766 | 23.96612 | 36027 ft | 453 kts | 212° |
| 2026-05-05 19:01 | -24.06644 | 23.94150 | 36011 ft | 451 kts | 213° |
| 2026-05-05 19:01 | -24.12473 | 23.91596 | 36007 ft | 451 kts | 213° |
| 2026-05-05 19:02 | -24.18299 | 23.89053 | 36013 ft | 451 kts | 213° |
| 2026-05-05 19:02 | -24.24146 | 23.86530 | 36018 ft | 451 kts | 212° |
| 2026-05-05 19:03 | -24.29991 | 23.84015 | 36079 ft | 451 kts | 213° |
| 2026-05-05 19:03 | -24.34825 | 23.81933 | 36038 ft | 448 kts | 213° |
| 2026-05-05 19:04 | -24.40622 | 23.79427 | 36027 ft | 448 kts | 213° |
| 2026-05-05 19:04 | -24.46396 | 23.76859 | 36027 ft | 447 kts | 214° |
| 2026-05-05 19:05 | -24.52142 | 23.74255 | 36036 ft | 446 kts | 214° |
| 2026-05-05 19:05 | -24.57874 | 23.71667 | 36033 ft | 445 kts | 214° |
| 2026-05-05 19:06 | -24.63603 | 23.69075 | 36046 ft | 446 kts | 214° |
| 2026-05-05 19:06 | -24.69307 | 23.66495 | 36033 ft | 447 kts | 214° |
| 2026-05-05 19:07 | -24.75054 | 23.63892 | 36033 ft | 447 kts | 214° |
| 2026-05-05 19:07 | -24.80805 | 23.61287 | 36041 ft | 447 kts | 214° |
| 2026-05-05 19:08 | -24.86617 | 23.58772 | 36041 ft | 450 kts | 213° |
| 2026-05-05 19:08 | -24.92476 | 23.56321 | 36090 ft | 450 kts | 213° |
| 2026-05-05 19:09 | -24.98339 | 23.53865 | 36058 ft | 451 kts | 213° |
| 2026-05-05 19:09 | -25.04209 | 23.51405 | 36062 ft | 451 kts | 213° |
| 2026-05-05 19:10 | -25.10034 | 23.48872 | 36062 ft | 444 kts | 218° |
| 2026-05-05 19:10 | -25.15460 | 23.45725 | 36066 ft | 439 kts | 220° |
| 2026-05-05 19:11 | -25.20847 | 23.42522 | 36115 ft | 439 kts | 220° |
| 2026-05-05 19:11 | -25.26215 | 23.39343 | 36112 ft | 437 kts | 220° |
| 2026-05-05 19:12 | -25.31770 | 23.36400 | 36089 ft | 445 kts | 217° |
| 2026-05-05 19:12 | -25.37394 | 23.33535 | 36081 ft | 445 kts | 217° |
| 2026-05-05 19:13 | -25.42967 | 23.30683 | 36080 ft | 444 kts | 217° |
| 2026-05-05 19:13 | -25.48576 | 23.27812 | 36081 ft | 444 kts | 217° |
| 2026-05-05 19:14 | -25.54178 | 23.24938 | 36137 ft | 444 kts | 217° |
| 2026-05-05 19:14 | -25.59793 | 23.22057 | 36099 ft | 445 kts | 217° |
| 2026-05-05 19:15 | -25.65401 | 23.19170 | 36091 ft | 444 kts | 217° |
| 2026-05-05 19:15 | -25.71009 | 23.16282 | 36090 ft | 444 kts | 217° |
| 2026-05-05 19:16 | -25.76617 | 23.13389 | 36092 ft | 444 kts | 217° |
| 2026-05-05 19:16 | -25.82213 | 23.10494 | 36131 ft | 444 kts | 217° |
| 2026-05-05 19:17 | -25.87774 | 23.07629 | 36149 ft | 435 kts | 217° |
| 2026-05-05 19:17 | -25.93270 | 23.04785 | 36105 ft | 439 kts | 217° |
| 2026-05-05 19:18 | -25.98837 | 23.01903 | 36090 ft | 442 kts | 217° |
| 2026-05-05 19:18 | -26.04411 | 22.99018 | 36103 ft | 442 kts | 217° |
| 2026-05-05 19:19 | -26.09985 | 22.96127 | 36107 ft | 442 kts | 217° |
| 2026-05-05 19:19 | -26.15563 | 22.93233 | 36095 ft | 442 kts | 217° |
| 2026-05-05 19:20 | -26.21145 | 22.90334 | 36116 ft | 444 kts | 217° |
| 2026-05-05 19:20 | -26.26710 | 22.87442 | 36105 ft | 444 kts | 217° |
| 2026-05-05 19:21 | -26.32345 | 22.84503 | 36103 ft | 444 kts | 217° |
| 2026-05-05 19:21 | -26.37901 | 22.81601 | 36102 ft | 444 kts | 217° |
| 2026-05-05 19:22 | -26.43531 | 22.78665 | 36103 ft | 444 kts | 217° |
| 2026-05-05 19:22 | -26.49088 | 22.75755 | 36114 ft | 437 kts | 217° |
| 2026-05-05 19:23 | -26.54556 | 22.72894 | 36100 ft | 437 kts | 217° |
| 2026-05-05 19:23 | -26.60066 | 22.70009 | 36105 ft | 437 kts | 217° |
| 2026-05-05 19:24 | -26.65570 | 22.67128 | 36102 ft | 437 kts | 217° |
| 2026-05-05 19:24 | -26.71067 | 22.64228 | 36102 ft | 437 kts | 217° |
| 2026-05-05 19:25 | -26.76567 | 22.61332 | 36104 ft | 437 kts | 217° |
| 2026-05-05 19:25 | -26.82084 | 22.58428 | 36145 ft | 440 kts | 216° |
| 2026-05-05 19:26 | -26.87636 | 22.55505 | 36112 ft | 441 kts | 216° |
| 2026-05-05 19:26 | -26.93192 | 22.52579 | 36107 ft | 441 kts | 216° |
| 2026-05-05 19:27 | -26.98745 | 22.49654 | 36099 ft | 441 kts | 216° |
| 2026-05-05 19:27 | -27.04289 | 22.46727 | 36104 ft | 441 kts | 216° |
| 2026-05-05 19:28 | -27.09820 | 22.43799 | 36164 ft | 437 kts | 215° |
| 2026-05-05 19:28 | -27.15325 | 22.40878 | 36119 ft | 440 kts | 215° |
| 2026-05-05 19:29 | -27.20868 | 22.37941 | 36106 ft | 441 kts | 215° |
| 2026-05-05 19:29 | -27.26415 | 22.35003 | 36104 ft | 441 kts | 215° |
| 2026-05-05 19:30 | -27.31950 | 22.32058 | 36105 ft | 440 kts | 215° |
| 2026-05-05 19:30 | -27.37496 | 22.29111 | 36107 ft | 441 kts | 215° |
| 2026-05-05 19:31 | -27.43042 | 22.26160 | 36140 ft | 443 kts | 214° |
| 2026-05-05 19:31 | -27.48577 | 22.23162 | 36113 ft | 442 kts | 218° |
| 2026-05-05 19:32 | -27.51081 | 22.21259 | 36106 ft | 429 kts | 229° |
| 2026-05-05 19:32 | -27.53283 | 22.19022 | 36110 ft | 424 kts | 232° |
| 2026-05-05 19:32 | -27.57552 | 22.14438 | 36106 ft | 424 kts | 232° |
| 2026-05-05 19:33 | -27.61835 | 22.09875 | 36118 ft | 422 kts | 231° |
| 2026-05-05 19:33 | -27.66108 | 22.05357 | 36109 ft | 421 kts | 231° |
| 2026-05-05 19:34 | -27.70381 | 22.00827 | 36108 ft | 422 kts | 231° |
| 2026-05-05 19:35 | -27.76819 | 21.93989 | 36116 ft | 426 kts | 230° |
| 2026-05-05 19:35 | -27.81130 | 21.89400 | 36105 ft | 426 kts | 230° |
| 2026-05-05 19:36 | -27.85441 | 21.84808 | 36105 ft | 426 kts | 230° |
| 2026-05-05 19:36 | -27.89752 | 21.80211 | 36104 ft | 426 kts | 230° |
| 2026-05-05 19:37 | -27.94041 | 21.75637 | 36101 ft | 422 kts | 229° |
| 2026-05-05 19:37 | -27.98302 | 21.71087 | 36095 ft | 420 kts | 229° |
| 2026-05-05 19:38 | -28.02544 | 21.66553 | 36100 ft | 419 kts | 229° |
| 2026-05-05 19:38 | -28.06780 | 21.62008 | 36120 ft | 421 kts | 229° |
| 2026-05-05 19:39 | -28.11059 | 21.57422 | 36108 ft | 425 kts | 229° |
| 2026-05-05 19:39 | -28.15329 | 21.52840 | 36097 ft | 425 kts | 229° |
| 2026-05-05 19:40 | -28.19616 | 21.48229 | 36089 ft | 425 kts | 229° |
| 2026-05-05 19:40 | -28.23907 | 21.43617 | 36087 ft | 425 kts | 229° |
| 2026-05-05 19:41 | -28.28197 | 21.39003 | 36086 ft | 425 kts | 229° |
| 2026-05-05 19:41 | -28.32493 | 21.34386 | 36085 ft | 426 kts | 229° |
| 2026-05-05 19:42 | -28.36789 | 21.29753 | 36082 ft | 426 kts | 229° |
| 2026-05-05 19:42 | -28.41506 | 21.25599 | 36098 ft | 441 kts | 212° |
| 2026-05-05 19:43 | -28.47306 | 21.23082 | 36087 ft | 448 kts | 205° |
| 2026-05-05 19:43 | -28.53192 | 21.20744 | 36084 ft | 448 kts | 205° |
| 2026-05-05 19:44 | -28.59051 | 21.18360 | 36085 ft | 447 kts | 206° |
| 2026-05-05 19:44 | -28.64906 | 21.15964 | 36084 ft | 447 kts | 206° |
| 2026-05-05 19:45 | -28.70760 | 21.13562 | 36119 ft | 447 kts | 205° |
| 2026-05-05 19:45 | -28.76586 | 21.11174 | 36089 ft | 444 kts | 205° |
| 2026-05-05 19:46 | -28.82393 | 21.08790 | 36087 ft | 444 kts | 205° |
| 2026-05-05 19:46 | -28.88165 | 21.06414 | 36088 ft | 444 kts | 205° |
| 2026-05-05 19:47 | -28.93976 | 21.04016 | 36087 ft | 444 kts | 205° |
| 2026-05-05 19:47 | -28.99797 | 21.01614 | 36116 ft | 445 kts | 204° |
| 2026-05-05 19:48 | -29.05626 | 20.99209 | 36099 ft | 446 kts | 204° |
| 2026-05-05 19:48 | -29.11460 | 20.96797 | 36092 ft | 446 kts | 204° |
| 2026-05-05 19:49 | -29.17294 | 20.94388 | 36091 ft | 446 kts | 204° |
| 2026-05-05 19:49 | -29.23124 | 20.91970 | 36091 ft | 446 kts | 204° |
| 2026-05-05 19:50 | -29.28955 | 20.89552 | 36110 ft | 446 kts | 204° |
| 2026-05-05 19:50 | -29.34750 | 20.87147 | 36103 ft | 446 kts | 204° |
| 2026-05-05 19:51 | -29.40571 | 20.84726 | 36099 ft | 444 kts | 204° |
| 2026-05-05 19:51 | -29.46385 | 20.82304 | 36100 ft | 444 kts | 204° |
| 2026-05-05 19:52 | -29.52192 | 20.79885 | 36104 ft | 443 kts | 203° |
| 2026-05-05 19:52 | -29.57956 | 20.77474 | 36100 ft | 440 kts | 204° |
| 2026-05-05 19:53 | -29.63712 | 20.75064 | 36096 ft | 440 kts | 204° |
| 2026-05-05 19:53 | -29.69465 | 20.72660 | 36105 ft | 440 kts | 204° |
| 2026-05-05 19:54 | -29.74244 | 20.70655 | 36108 ft | 440 kts | 204° |
| 2026-05-05 19:54 | -29.79992 | 20.68240 | 36109 ft | 440 kts | 204° |
| 2026-05-05 19:55 | -29.85739 | 20.65829 | 36128 ft | 440 kts | 203° |
| 2026-05-05 19:55 | -29.91508 | 20.63409 | 36108 ft | 441 kts | 203° |
| 2026-05-05 19:56 | -29.97278 | 20.60984 | 36106 ft | 441 kts | 203° |
| 2026-05-05 19:56 | -30.03051 | 20.58553 | 36110 ft | 441 kts | 203° |
| 2026-05-05 19:57 | -30.08815 | 20.56115 | 36112 ft | 441 kts | 203° |
| 2026-05-05 19:57 | -30.14585 | 20.53683 | 36124 ft | 441 kts | 202° |
| 2026-05-05 19:58 | -30.20358 | 20.51239 | 36112 ft | 442 kts | 202° |
| 2026-05-05 19:58 | -30.26093 | 20.48806 | 36110 ft | 442 kts | 202° |
| 2026-05-05 19:59 | -30.31862 | 20.46362 | 36117 ft | 439 kts | 202° |
| 2026-05-05 19:59 | -30.37565 | 20.43944 | 36116 ft | 436 kts | 202° |
| 2026-05-05 20:00 | -30.43265 | 20.41518 | 36137 ft | 436 kts | 201° |
| 2026-05-05 20:00 | -30.48969 | 20.39098 | 36125 ft | 437 kts | 201° |
| 2026-05-05 20:01 | -30.54677 | 20.36671 | 36116 ft | 437 kts | 202° |
| 2026-05-05 20:01 | -30.60372 | 20.34221 | 36112 ft | 437 kts | 202° |
| 2026-05-05 20:02 | -30.66072 | 20.31768 | 36118 ft | 437 kts | 202° |
| 2026-05-05 20:02 | -30.71762 | 20.29319 | 36122 ft | 435 kts | 201° |
| 2026-05-05 20:03 | -30.77414 | 20.26887 | 36116 ft | 432 kts | 201° |
| 2026-05-05 20:03 | -30.83035 | 20.24468 | 36112 ft | 429 kts | 201° |
| 2026-05-05 20:04 | -30.88623 | 20.22061 | 36115 ft | 427 kts | 201° |
| 2026-05-05 20:04 | -30.94228 | 20.19633 | 36131 ft | 434 kts | 201° |
| 2026-05-05 20:05 | -30.99911 | 20.17171 | 36143 ft | 437 kts | 201° |
| 2026-05-05 20:05 | -31.05612 | 20.14704 | 36122 ft | 438 kts | 201° |
| 2026-05-05 20:06 | -31.11268 | 20.12252 | 36120 ft | 433 kts | 201° |
| 2026-05-05 20:06 | -31.16893 | 20.09808 | 36123 ft | 430 kts | 201° |
| 2026-05-05 20:07 | -31.22521 | 20.07366 | 36117 ft | 427 kts | 201° |
| 2026-05-05 20:07 | -31.28038 | 20.04965 | 36129 ft | 424 kts | 201° |
| 2026-05-05 20:08 | -31.33566 | 20.02550 | 36133 ft | 423 kts | 200° |
| 2026-05-05 20:08 | -31.39091 | 20.00143 | 36137 ft | 427 kts | 200° |
| 2026-05-05 20:09 | -31.44693 | 19.97689 | 36128 ft | 431 kts | 201° |
| 2026-05-05 20:09 | -31.50315 | 19.95228 | 36128 ft | 432 kts | 201° |
| 2026-05-05 20:10 | -31.55945 | 19.92770 | 36135 ft | 432 kts | 201° |
| 2026-05-05 20:10 | -31.61574 | 19.90297 | 36129 ft | 431 kts | 200° |
| 2026-05-05 20:11 | -31.67180 | 19.87835 | 36135 ft | 429 kts | 200° |
| 2026-05-05 20:11 | -31.72715 | 19.85401 | 36126 ft | 426 kts | 200° |
| 2026-05-05 20:12 | -31.78261 | 19.82965 | 36123 ft | 425 kts | 200° |
| 2026-05-05 20:12 | -31.83791 | 19.80528 | 36130 ft | 426 kts | 200° |
| 2026-05-05 20:13 | -31.89373 | 19.78064 | 36129 ft | 428 kts | 200° |
| 2026-05-05 20:13 | -31.94944 | 19.75602 | 36119 ft | 428 kts | 200° |
| 2026-05-05 20:14 | -32.00521 | 19.73134 | 36124 ft | 428 kts | 200° |
| 2026-05-05 20:14 | -32.06102 | 19.70659 | 36117 ft | 428 kts | 200° |
| 2026-05-05 20:15 | -32.11663 | 19.68194 | 36109 ft | 426 kts | 200° |
| 2026-05-05 20:15 | -32.17187 | 19.65739 | 36108 ft | 424 kts | 200° |
| 2026-05-05 20:16 | -32.22690 | 19.63283 | 36107 ft | 422 kts | 200° |
| 2026-05-05 20:16 | -32.28166 | 19.60837 | 36107 ft | 420 kts | 200° |
| 2026-05-05 20:17 | -32.33621 | 19.58406 | 36108 ft | 421 kts | 199° |
| 2026-05-05 20:17 | -32.39159 | 19.55937 | 36110 ft | 428 kts | 199° |
| 2026-05-05 20:18 | -32.44753 | 19.53507 | 36113 ft | 428 kts | 199° |
| 2026-05-05 20:18 | -32.50352 | 19.51070 | 36118 ft | 429 kts | 199° |
| 2026-05-05 20:18 | -32.53143 | 19.49856 | 35933 ft | 424 kts | 199° |
| 2026-05-05 20:19 | -32.55912 | 19.48649 | 35626 ft | 425 kts | 199° |
| 2026-05-05 20:19 | -32.58683 | 19.47440 | 35157 ft | 423 kts | 199° |
| 2026-05-05 20:19 | -32.61439 | 19.46236 | 34535 ft | 422 kts | 199° |
| 2026-05-05 20:19 | -32.64184 | 19.45035 | 33858 ft | 420 kts | 198° |
| 2026-05-05 20:20 | -32.66919 | 19.43836 | 33189 ft | 418 kts | 198° |
| 2026-05-05 20:20 | -32.69640 | 19.42643 | 32594 ft | 415 kts | 198° |
| 2026-05-05 20:20 | -32.72336 | 19.41460 | 32011 ft | 412 kts | 198° |
| 2026-05-05 20:20 | -32.75013 | 19.40287 | 31424 ft | 409 kts | 198° |
| 2026-05-05 20:21 | -32.77681 | 19.39119 | 30860 ft | 406 kts | 197° |
| 2026-05-05 20:21 | -32.80373 | 19.38203 | 30320 ft | 400 kts | 188° |
| 2026-05-05 20:21 | -32.83084 | 19.38009 | 29680 ft | 394 kts | 175° |
| 2026-05-05 20:21 | -32.85800 | 19.38328 | 29055 ft | 390 kts | 172° |
| 2026-05-05 20:22 | -32.88485 | 19.38723 | 28458 ft | 386 kts | 172° |
| 2026-05-05 20:22 | -32.91127 | 19.39111 | 27938 ft | 381 kts | 171° |
| 2026-05-05 20:22 | -32.93748 | 19.39482 | 27387 ft | 377 kts | 171° |
| 2026-05-05 20:22 | -32.96347 | 19.39842 | 26833 ft | 375 kts | 171° |
| 2026-05-05 20:23 | -32.98934 | 19.40196 | 26303 ft | 373 kts | 171° |
| 2026-05-05 20:23 | -33.01505 | 19.40548 | 25782 ft | 371 kts | 171° |
| 2026-05-05 20:23 | -33.04066 | 19.40901 | 25266 ft | 369 kts | 170° |
| 2026-05-05 20:23 | -33.06618 | 19.41252 | 24737 ft | 369 kts | 170° |
| 2026-05-05 20:24 | -33.09165 | 19.41601 | 24203 ft | 369 kts | 170° |
| 2026-05-05 20:24 | -33.11717 | 19.41951 | 23662 ft | 369 kts | 169° |
| 2026-05-05 20:24 | -33.14264 | 19.42302 | 23055 ft | 369 kts | 169° |
| 2026-05-05 20:24 | -33.16814 | 19.42654 | 22499 ft | 367 kts | 169° |
| 2026-05-05 20:25 | -33.19343 | 19.43002 | 21926 ft | 366 kts | 170° |
| 2026-05-05 20:25 | -33.21870 | 19.43322 | 21375 ft | 365 kts | 173° |
| 2026-05-05 20:25 | -33.24403 | 19.43033 | 20852 ft | 369 kts | 192° |
| 2026-05-05 20:25 | -33.26730 | 19.41746 | 20355 ft | 372 kts | 212° |
| 2026-05-05 20:26 | -33.28582 | 19.39603 | 19885 ft | 373 kts | 231° |
| 2026-05-05 20:26 | -33.30038 | 19.37046 | 19441 ft | 371 kts | 234° |
| 2026-05-05 20:26 | -33.31471 | 19.34498 | 18994 ft | 369 kts | 233° |
| 2026-05-05 20:26 | -33.32958 | 19.32008 | 18542 ft | 367 kts | 231° |
| 2026-05-05 20:27 | -33.34478 | 19.29558 | 18063 ft | 366 kts | 231° |
| 2026-05-05 20:27 | -33.36017 | 19.27130 | 17581 ft | 365 kts | 230° |
| 2026-05-05 20:27 | -33.37561 | 19.24721 | 17108 ft | 365 kts | 230° |
| 2026-05-05 20:27 | -33.39100 | 19.22314 | 16641 ft | 364 kts | 230° |
| 2026-05-05 20:28 | -33.40634 | 19.19917 | 16194 ft | 363 kts | 230° |
| 2026-05-05 20:28 | -33.42308 | 19.17715 | 15764 ft | 353 kts | 219° |
| 2026-05-05 20:28 | -33.44137 | 19.15804 | 15357 ft | 345 kts | 218° |
| 2026-05-05 20:28 | -33.45940 | 19.13959 | 14946 ft | 338 kts | 218° |
| 2026-05-05 20:29 | -33.47709 | 19.12146 | 14520 ft | 332 kts | 218° |
| 2026-05-05 20:29 | -33.49422 | 19.10375 | 14094 ft | 326 kts | 217° |
| 2026-05-05 20:29 | -33.51125 | 19.08614 | 13668 ft | 322 kts | 218° |
| 2026-05-05 20:29 | -33.52824 | 19.06861 | 13250 ft | 322 kts | 217° |
| 2026-05-05 20:30 | -33.54521 | 19.05105 | 12851 ft | 322 kts | 218° |
| 2026-05-05 20:30 | -33.56214 | 19.03344 | 12434 ft | 322 kts | 218° |
| 2026-05-05 20:30 | -33.57910 | 19.01580 | 12004 ft | 323 kts | 217° |
| 2026-05-05 20:30 | -33.59609 | 18.99821 | 11595 ft | 320 kts | 217° |
| 2026-05-05 20:31 | -33.61255 | 18.98098 | 11351 ft | 308 kts | 218° |
| 2026-05-05 20:31 | -33.62832 | 18.96439 | 11078 ft | 294 kts | 217° |
| 2026-05-05 20:31 | -33.64351 | 18.94845 | 10624 ft | 288 kts | 217° |
| 2026-05-05 20:31 | -33.65846 | 18.93279 | 10184 ft | 282 kts | 217° |
| 2026-05-05 20:32 | -33.67321 | 18.91736 | 9789 ft | 282 kts | 217° |
| 2026-05-05 20:32 | -33.68801 | 18.90186 | 9381 ft | 283 kts | 218° |
| 2026-05-05 20:32 | -33.70284 | 18.88631 | 8986 ft | 284 kts | 218° |
| 2026-05-05 20:32 | -33.71761 | 18.87078 | 8605 ft | 280 kts | 218° |
| 2026-05-05 20:33 | -33.73218 | 18.85548 | 8218 ft | 276 kts | 218° |
| 2026-05-05 20:33 | -33.74664 | 18.84029 | 7830 ft | 277 kts | 218° |
| 2026-05-05 20:33 | -33.76120 | 18.82496 | 7467 ft | 278 kts | 219° |
| 2026-05-05 20:33 | -33.77560 | 18.80982 | 7167 ft | 271 kts | 219° |
| 2026-05-05 20:34 | -33.78950 | 18.79531 | 7089 ft | 256 kts | 218° |
| 2026-05-05 20:34 | -33.80239 | 18.78182 | 7141 ft | 236 kts | 218° |
| 2026-05-05 20:34 | -33.81469 | 18.76893 | 7141 ft | 235 kts | 218° |
| 2026-05-05 20:34 | -33.82702 | 18.75600 | 7161 ft | 235 kts | 218° |
| 2026-05-05 20:35 | -33.83908 | 18.74280 | 7133 ft | 236 kts | 226° |
| 2026-05-05 20:35 | -33.84673 | 18.72545 | 7012 ft | 237 kts | 255° |
| 2026-05-05 20:35 | -33.84649 | 18.70562 | 6601 ft | 242 kts | 284° |
| 2026-05-05 20:35 | -33.83855 | 18.68792 | 6181 ft | 243 kts | 313° |
| 2026-05-05 20:36 | -33.82638 | 18.67393 | 5799 ft | 241 kts | 305° |
| 2026-05-05 20:36 | -33.82079 | 18.65542 | 5407 ft | 237 kts | 269° |
| 2026-05-05 20:36 | -33.82207 | 18.63586 | 5065 ft | 234 kts | 262° |
| 2026-05-05 20:36 | -33.82377 | 18.61646 | 4723 ft | 232 kts | 263° |
| 2026-05-05 20:37 | -33.82498 | 18.59718 | 4373 ft | 231 kts | 264° |
| 2026-05-05 20:37 | -33.82687 | 18.58471 | 4152 ft | 227 kts | 249° |
| 2026-05-05 20:37 | -33.84024 | 18.56717 | 3695 ft | 213 kts | 195° |
| 2026-05-05 20:37 | -33.85462 | 18.56744 | 3281 ft | 209 kts | 167° |
| 2026-05-05 20:38 | -33.86836 | 18.57151 | 3044 ft | 197 kts | 165° |
| 2026-05-05 20:38 | -33.88142 | 18.57572 | 2722 ft | 190 kts | 164° |
| 2026-05-05 20:38 | -33.89382 | 18.57963 | 2431 ft | 176 kts | 165° |
| 2026-05-05 20:38 | -33.90541 | 18.58317 | 2045 ft | 172 kts | 166° |
| 2026-05-05 20:39 | -33.91630 | 18.58653 | 1696 ft | 153 kts | 166° |
| 2026-05-05 20:39 | -33.92648 | 18.58971 | 1188 ft | 148 kts | 166° |
| 2026-05-05 20:39 | -33.93594 | 18.59274 | 747 ft | 134 kts | 165° |
| 2026-05-05 20:39 | -33.94466 | 18.59548 | 433 ft | 128 kts | 166° |
| 2026-05-05 20:40 | -33.95326 | 18.59806 | 278 ft | 127 kts | 167° |
| 2026-05-05 20:40 | -33.96185 | 18.60069 | 201 ft | 127 kts | 167° |
| 2026-05-05 20:40 | -33.97014 | 18.60324 | 165 ft | 114 kts | 166° |
| 2026-05-05 20:40 | -33.97680 | 18.60540 | 159 ft | 85 kts | 166° |
| 2026-05-05 20:41 | -33.98161 | 18.60690 | 160 ft | 58 kts | 165° |
| 2026-05-05 20:41 | -33.98501 | 18.60799 | 158 ft | 37 kts | 165° |
| 2026-05-05 20:41 | -33.98625 | 18.60838 | 158 ft | 10 kts | 165° |
| 2026-05-05 20:41 | -33.98702 | 18.60863 | 160 ft | 13 kts | 167° |
| 2026-05-05 20:42 | -33.98763 | 18.60844 | 160 ft | 15 kts | 225° |
| 2026-05-05 20:42 | -33.98799 | 18.60719 | 160 ft | 17 kts | 258° |
| 2026-05-05 20:42 | -33.98725 | 18.60621 | 159 ft | 19 kts | 343° |
| 2026-05-05 20:42 | -33.98593 | 18.60569 | 160 ft | 21 kts | 340° |